sensor_id;sensor_type;location;lat;lon;timestamp;pressure;altitude;pressure_sealevel;temperature;humidity
26699;BME280;14313;50.892;13.756;2022-07-23T00:00:51;97847.59;;;23.50;60.04
26699;BME280;14313;50.892;13.756;2022-07-23T00:03:16;97849.72;;;23.48;60.29
26699;BME280;14313;50.892;13.756;2022-07-23T00:05:41;97853.50;;;23.58;59.91
26699;BME280;14313;50.892;13.756;2022-07-23T00:08:07;97844.00;;;23.56;60.61
26699;BME280;14313;50.892;13.756;2022-07-23T00:10:33;97833.22;;;23.56;60.84
26699;BME280;14313;50.892;13.756;2022-07-23T00:12:58;97839.13;;;23.23;62.06
26699;BME280;14313;50.892;13.756;2022-07-23T00:15:23;97835.41;;;23.06;62.53
26699;BME280;14313;50.892;13.756;2022-07-23T00:17:49;97834.25;;;23.02;62.47
26699;BME280;14313;50.892;13.756;2022-07-23T00:20:15;97824.44;;;23.19;62.20
26699;BME280;14313;50.892;13.756;2022-07-23T00:22:50;97828.78;;;23.20;61.93
26699;BME280;14313;50.892;13.756;2022-07-23T00:25:16;97821.78;;;23.30;61.81
26699;BME280;14313;50.892;13.756;2022-07-23T00:27:42;97816.38;;;23.49;60.62
26699;BME280;14313;50.892;13.756;2022-07-23T00:30:08;97821.06;;;23.65;60.22
26699;BME280;14313;50.892;13.756;2022-07-23T00:32:55;97818.84;;;23.62;60.33
26699;BME280;14313;50.892;13.756;2022-07-23T00:35:25;97816.25;;;23.55;60.59
26699;BME280;14313;50.892;13.756;2022-07-23T00:37:50;97817.47;;;23.18;61.74
26699;BME280;14313;50.892;13.756;2022-07-23T00:40:16;97812.56;;;23.26;61.82
26699;BME280;14313;50.892;13.756;2022-07-23T00:42:41;97810.09;;;23.25;61.39
26699;BME280;14313;50.892;13.756;2022-07-23T00:45:07;97806.69;;;23.29;61.09
26699;BME280;14313;50.892;13.756;2022-07-23T00:47:32;97811.44;;;22.74;62.71
26699;BME280;14313;50.892;13.756;2022-07-23T00:49:58;97813.06;;;22.57;63.96
26699;BME280;14313;50.892;13.756;2022-07-23T00:52:24;97819.66;;;22.61;63.78
26699;BME280;14313;50.892;13.756;2022-07-23T00:54:50;97821.00;;;22.52;63.76
26699;BME280;14313;50.892;13.756;2022-07-23T00:57:15;97815.56;;;22.77;63.27
26699;BME280;14313;50.892;13.756;2022-07-23T00:59:41;97828.41;;;22.57;63.76
26699;BME280;14313;50.892;13.756;2022-07-23T01:02:06;97820.63;;;22.67;62.24
26699;BME280;14313;50.892;13.756;2022-07-23T01:04:32;97812.31;;;22.68;62.85
26699;BME280;14313;50.892;13.756;2022-07-23T01:06:57;97821.63;;;22.72;62.91
26699;BME280;14313;50.892;13.756;2022-07-23T01:09:23;97812.28;;;22.75;63.04
26699;BME280;14313;50.892;13.756;2022-07-23T01:11:50;97818.13;;;22.83;62.88
26699;BME280;14313;50.892;13.756;2022-07-23T01:14:17;97808.59;;;22.99;62.23
26699;BME280;14313;50.892;13.756;2022-07-23T01:16:44;97801.28;;;23.06;61.60
26699;BME280;14313;50.892;13.756;2022-07-23T01:19:10;97796.81;;;23.00;62.13
26699;BME280;14313;50.892;13.756;2022-07-23T01:21:39;97790.47;;;22.94;62.70
26699;BME280;14313;50.892;13.756;2022-07-23T01:24:06;97773.63;;;22.69;63.25
26699;BME280;14313;50.892;13.756;2022-07-23T01:26:34;97785.69;;;22.48;64.06
26699;BME280;14313;50.892;13.756;2022-07-23T01:29:00;97784.94;;;22.60;64.30
26699;BME280;14313;50.892;13.756;2022-07-23T01:31:26;97779.69;;;22.65;63.98
26699;BME280;14313;50.892;13.756;2022-07-23T01:33:51;97779.66;;;22.71;63.58
26699;BME280;14313;50.892;13.756;2022-07-23T01:36:17;97774.03;;;22.73;63.65
26699;BME280;14313;50.892;13.756;2022-07-23T01:38:42;97773.06;;;22.67;64.12
26699;BME280;14313;50.892;13.756;2022-07-23T01:41:08;97771.13;;;22.74;63.94
26699;BME280;14313;50.892;13.756;2022-07-23T01:43:33;97767.44;;;22.69;63.70
26699;BME280;14313;50.892;13.756;2022-07-23T01:45:58;97760.53;;;22.61;63.98
26699;BME280;14313;50.892;13.756;2022-07-23T01:48:27;97754.09;;;22.62;64.20
26699;BME280;14313;50.892;13.756;2022-07-23T01:51:14;97753.78;;;22.70;63.30
26699;BME280;14313;50.892;13.756;2022-07-23T01:53:42;97745.75;;;22.52;63.61
26699;BME280;14313;50.892;13.756;2022-07-23T01:56:07;97746.41;;;22.66;63.29
26699;BME280;14313;50.892;13.756;2022-07-23T01:58:33;97751.25;;;22.57;63.71
26699;BME280;14313;50.892;13.756;2022-07-23T02:00:59;97742.69;;;22.48;63.96
26699;BME280;14313;50.892;13.756;2022-07-23T02:03:25;97746.81;;;22.51;63.70
26699;BME280;14313;50.892;13.756;2022-07-23T02:05:50;97741.44;;;22.33;64.75
26699;BME280;14313;50.892;13.756;2022-07-23T02:08:16;97743.19;;;22.27;64.52
26699;BME280;14313;50.892;13.756;2022-07-23T02:10:42;97744.91;;;22.22;65.01
26699;BME280;14313;50.892;13.756;2022-07-23T02:13:07;97743.78;;;22.29;64.69
26699;BME280;14313;50.892;13.756;2022-07-23T02:15:33;97737.72;;;22.34;64.30
26699;BME280;14313;50.892;13.756;2022-07-23T02:17:58;97747.81;;;22.20;64.69
26699;BME280;14313;50.892;13.756;2022-07-23T02:20:24;97757.91;;;22.25;64.17
26699;BME280;14313;50.892;13.756;2022-07-23T02:22:49;97749.50;;;22.33;63.96
26699;BME280;14313;50.892;13.756;2022-07-23T02:25:15;97744.88;;;22.40;63.79
26699;BME280;14313;50.892;13.756;2022-07-23T02:27:41;97744.28;;;22.38;63.36
26699;BME280;14313;50.892;13.756;2022-07-23T02:30:07;97743.84;;;22.41;63.70
26699;BME280;14313;50.892;13.756;2022-07-23T02:32:33;97736.13;;;22.44;64.02
26699;BME280;14313;50.892;13.756;2022-07-23T02:34:59;97734.13;;;22.40;63.91
26699;BME280;14313;50.892;13.756;2022-07-23T02:37:24;97733.22;;;22.46;63.57
26699;BME280;14313;50.892;13.756;2022-07-23T02:39:50;97721.03;;;22.62;63.60
26699;BME280;14313;50.892;13.756;2022-07-23T02:42:15;97719.31;;;22.49;63.47
26699;BME280;14313;50.892;13.756;2022-07-23T02:44:42;97715.00;;;22.48;64.00
26699;BME280;14313;50.892;13.756;2022-07-23T02:47:07;97716.00;;;22.35;64.91
26699;BME280;14313;50.892;13.756;2022-07-23T02:49:33;97718.50;;;22.48;64.42
26699;BME280;14313;50.892;13.756;2022-07-23T02:52:01;97716.84;;;22.36;64.41
26699;BME280;14313;50.892;13.756;2022-07-23T02:54:26;97721.13;;;22.37;64.74
26699;BME280;14313;50.892;13.756;2022-07-23T02:56:52;97714.38;;;22.34;64.68
26699;BME280;14313;50.892;13.756;2022-07-23T02:59:18;97714.00;;;22.31;65.25
26699;BME280;14313;50.892;13.756;2022-07-23T03:01:43;97707.13;;;22.35;65.85
26699;BME280;14313;50.892;13.756;2022-07-23T03:04:09;97713.34;;;22.47;65.13
26699;BME280;14313;50.892;13.756;2022-07-23T03:06:35;97706.78;;;22.43;65.43
26699;BME280;14313;50.892;13.756;2022-07-23T03:09:00;97707.34;;;22.33;66.03
26699;BME280;14313;50.892;13.756;2022-07-23T03:11:26;97712.03;;;22.38;65.97
26699;BME280;14313;50.892;13.756;2022-07-23T03:13:52;97711.94;;;22.44;65.84
26699;BME280;14313;50.892;13.756;2022-07-23T03:16:19;97700.03;;;22.40;65.77
26699;BME280;14313;50.892;13.756;2022-07-23T03:18:44;97705.06;;;22.48;65.49
26699;BME280;14313;50.892;13.756;2022-07-23T03:21:10;97711.53;;;22.59;65.42
26699;BME280;14313;50.892;13.756;2022-07-23T03:23:36;97700.16;;;22.45;65.69
26699;BME280;14313;50.892;13.756;2022-07-23T03:26:02;97697.56;;;22.39;65.79
26699;BME280;14313;50.892;13.756;2022-07-23T03:28:27;97689.00;;;22.30;66.50
26699;BME280;14313;50.892;13.756;2022-07-23T03:30:53;97692.50;;;22.31;66.50
26699;BME280;14313;50.892;13.756;2022-07-23T03:33:20;97691.91;;;22.29;66.29
26699;BME280;14313;50.892;13.756;2022-07-23T03:35:46;97682.19;;;22.28;66.63
26699;BME280;14313;50.892;13.756;2022-07-23T03:38:20;97685.69;;;22.46;66.09
26699;BME280;14313;50.892;13.756;2022-07-23T03:40:45;97692.50;;;22.61;65.56
26699;BME280;14313;50.892;13.756;2022-07-23T03:43:10;97688.44;;;22.70;65.42
26699;BME280;14313;50.892;13.756;2022-07-23T03:45:36;97683.06;;;22.70;65.05
26699;BME280;14313;50.892;13.756;2022-07-23T03:48:01;97682.19;;;22.58;65.78
26699;BME280;14313;50.892;13.756;2022-07-23T03:50:28;97680.94;;;22.60;66.29
26699;BME280;14313;50.892;13.756;2022-07-23T03:52:53;97671.63;;;22.74;65.31
26699;BME280;14313;50.892;13.756;2022-07-23T03:55:19;97669.78;;;22.86;65.10
26699;BME280;14313;50.892;13.756;2022-07-23T03:57:44;97664.16;;;22.76;65.13
26699;BME280;14313;50.892;13.756;2022-07-23T04:00:10;97657.38;;;22.85;65.02
26699;BME280;14313;50.892;13.756;2022-07-23T04:02:39;97654.09;;;22.83;64.68
26699;BME280;14313;50.892;13.756;2022-07-23T04:05:05;97660.78;;;22.81;65.07
26699;BME280;14313;50.892;13.756;2022-07-23T04:07:31;97680.31;;;22.88;64.98
26699;BME280;14313;50.892;13.756;2022-07-23T04:09:56;97670.63;;;22.87;66.15
26699;BME280;14313;50.892;13.756;2022-07-23T04:12:22;97661.63;;;23.05;65.68
26699;BME280;14313;50.892;13.756;2022-07-23T04:14:47;97663.38;;;23.11;65.32
26699;BME280;14313;50.892;13.756;2022-07-23T04:17:13;97651.78;;;23.10;64.94
26699;BME280;14313;50.892;13.756;2022-07-23T04:19:39;97659.50;;;22.95;65.06
26699;BME280;14313;50.892;13.756;2022-07-23T04:22:12;97650.50;;;23.01;65.15
26699;BME280;14313;50.892;13.756;2022-07-23T04:24:38;97652.41;;;23.12;65.01
26699;BME280;14313;50.892;13.756;2022-07-23T04:27:03;97650.38;;;23.19;64.81
26699;BME280;14313;50.892;13.756;2022-07-23T04:29:30;97654.28;;;23.47;64.22
26699;BME280;14313;50.892;13.756;2022-07-23T04:31:56;97653.19;;;23.36;64.51
26699;BME280;14313;50.892;13.756;2022-07-23T04:34:22;97656.75;;;23.48;64.90
26699;BME280;14313;50.892;13.756;2022-07-23T04:36:47;97665.59;;;23.60;64.26
26699;BME280;14313;50.892;13.756;2022-07-23T04:39:13;97668.56;;;23.59;64.50
26699;BME280;14313;50.892;13.756;2022-07-23T04:41:40;97660.59;;;23.64;64.59
26699;BME280;14313;50.892;13.756;2022-07-23T04:44:05;97658.66;;;23.76;64.47
26699;BME280;14313;50.892;13.756;2022-07-23T04:46:31;97670.38;;;23.82;63.79
26699;BME280;14313;50.892;13.756;2022-07-23T04:48:57;97678.34;;;23.65;65.84
26699;BME280;14313;50.892;13.756;2022-07-23T04:51:22;97679.16;;;23.65;66.73
26699;BME280;14313;50.892;13.756;2022-07-23T04:53:48;97686.66;;;23.40;68.05
26699;BME280;14313;50.892;13.756;2022-07-23T04:56:13;97694.25;;;23.20;68.43
26699;BME280;14313;50.892;13.756;2022-07-23T04:58:39;97689.56;;;23.04;68.56
26699;BME280;14313;50.892;13.756;2022-07-23T05:01:04;97696.59;;;23.05;69.09
26699;BME280;14313;50.892;13.756;2022-07-23T05:03:32;97698.13;;;23.12;68.43
26699;BME280;14313;50.892;13.756;2022-07-23T05:05:58;97700.38;;;23.38;68.12
26699;BME280;14313;50.892;13.756;2022-07-23T05:08:23;97689.22;;;23.35;68.22
26699;BME280;14313;50.892;13.756;2022-07-23T05:10:52;97688.34;;;23.53;67.91
26699;BME280;14313;50.892;13.756;2022-07-23T05:13:18;97685.63;;;23.53;68.40
26699;BME280;14313;50.892;13.756;2022-07-23T05:15:44;97683.03;;;23.34;68.20
26699;BME280;14313;50.892;13.756;2022-07-23T05:18:10;97694.50;;;23.42;68.10
26699;BME280;14313;50.892;13.756;2022-07-23T05:20:36;97689.13;;;23.65;67.71
26699;BME280;14313;50.892;13.756;2022-07-23T05:23:02;97692.72;;;23.94;66.99
26699;BME280;14313;50.892;13.756;2022-07-23T05:25:27;97697.56;;;23.80;67.41
26699;BME280;14313;50.892;13.756;2022-07-23T05:27:53;97704.59;;;23.69;67.50
26699;BME280;14313;50.892;13.756;2022-07-23T05:30:18;97693.75;;;23.93;66.88
26699;BME280;14313;50.892;13.756;2022-07-23T05:32:46;97710.66;;;23.65;68.09
26699;BME280;14313;50.892;13.756;2022-07-23T05:35:15;97712.56;;;23.64;67.97
26699;BME280;14313;50.892;13.756;2022-07-23T05:37:46;97731.97;;;23.55;68.26
26699;BME280;14313;50.892;13.756;2022-07-23T05:40:12;97724.47;;;23.45;68.83
26699;BME280;14313;50.892;13.756;2022-07-23T05:42:38;97724.56;;;23.15;69.09
26699;BME280;14313;50.892;13.756;2022-07-23T05:45:05;97715.81;;;23.55;68.29
26699;BME280;14313;50.892;13.756;2022-07-23T05:47:44;97733.28;;;23.64;68.12
26699;BME280;14313;50.892;13.756;2022-07-23T05:50:11;97743.34;;;23.57;67.93
26699;BME280;14313;50.892;13.756;2022-07-23T05:52:44;97766.63;;;23.74;67.40
26699;BME280;14313;50.892;13.756;2022-07-23T05:55:36;97791.06;;;23.50;68.22
26699;BME280;14313;50.892;13.756;2022-07-23T05:58:01;97781.00;;;23.33;68.82
26699;BME280;14313;50.892;13.756;2022-07-23T06:00:29;97807.16;;;23.26;68.98
26699;BME280;14313;50.892;13.756;2022-07-23T06:02:55;97810.94;;;23.37;69.30
26699;BME280;14313;50.892;13.756;2022-07-23T06:05:21;97813.16;;;22.99;70.45
26699;BME280;14313;50.892;13.756;2022-07-23T06:07:47;97829.38;;;22.44;72.60
26699;BME280;14313;50.892;13.756;2022-07-23T06:10:13;97828.31;;;22.63;71.61
26699;BME280;14313;50.892;13.756;2022-07-23T06:12:39;97821.44;;;22.67;71.77
26699;BME280;14313;50.892;13.756;2022-07-23T06:15:05;97823.06;;;22.68;71.68
26699;BME280;14313;50.892;13.756;2022-07-23T06:17:31;97839.81;;;22.52;71.49
26699;BME280;14313;50.892;13.756;2022-07-23T06:19:56;97833.78;;;22.57;71.64
26699;BME280;14313;50.892;13.756;2022-07-23T06:22:22;97822.69;;;22.83;70.44
26699;BME280;14313;50.892;13.756;2022-07-23T06:24:48;97828.09;;;23.13;69.51
26699;BME280;14313;50.892;13.756;2022-07-23T06:27:13;97821.28;;;23.10;69.47
26699;BME280;14313;50.892;13.756;2022-07-23T06:29:39;97826.00;;;23.26;68.94
26699;BME280;14313;50.892;13.756;2022-07-23T06:32:06;97818.00;;;23.08;69.14
26699;BME280;14313;50.892;13.756;2022-07-23T06:34:32;97822.56;;;23.08;69.17
26699;BME280;14313;50.892;13.756;2022-07-23T06:36:58;97827.03;;;22.84;70.18
26699;BME280;14313;50.892;13.756;2022-07-23T06:39:25;97826.06;;;22.78;70.09
26699;BME280;14313;50.892;13.756;2022-07-23T06:41:51;97820.81;;;22.72;69.84
26699;BME280;14313;50.892;13.756;2022-07-23T06:44:16;97825.16;;;22.84;69.91
26699;BME280;14313;50.892;13.756;2022-07-23T06:46:42;97821.16;;;22.75;70.50
26699;BME280;14313;50.892;13.756;2022-07-23T06:49:07;97812.38;;;22.98;68.92
26699;BME280;14313;50.892;13.756;2022-07-23T06:51:33;97822.88;;;23.00;68.92
26699;BME280;14313;50.892;13.756;2022-07-23T06:54:00;97833.19;;;22.54;70.65
26699;BME280;14313;50.892;13.756;2022-07-23T06:56:25;97844.31;;;22.76;69.90
26699;BME280;14313;50.892;13.756;2022-07-23T06:58:51;97834.09;;;22.30;71.20
26699;BME280;14313;50.892;13.756;2022-07-23T07:01:16;97838.34;;;22.20;71.73
26699;BME280;14313;50.892;13.756;2022-07-23T07:03:42;97844.38;;;22.33;71.10
26699;BME280;14313;50.892;13.756;2022-07-23T07:06:08;97827.91;;;22.96;69.12
26699;BME280;14313;50.892;13.756;2022-07-23T07:08:33;97832.53;;;23.19;68.44
26699;BME280;14313;50.892;13.756;2022-07-23T07:10:58;97830.59;;;22.96;68.55
26699;BME280;14313;50.892;13.756;2022-07-23T07:13:24;97828.41;;;22.75;69.57
26699;BME280;14313;50.892;13.756;2022-07-23T07:15:49;97822.84;;;23.29;67.63
26699;BME280;14313;50.892;13.756;2022-07-23T07:18:14;97828.22;;;23.18;67.29
26699;BME280;14313;50.892;13.756;2022-07-23T07:20:39;97824.63;;;22.94;68.43
26699;BME280;14313;50.892;13.756;2022-07-23T07:23:05;97820.41;;;23.28;67.49
26699;BME280;14313;50.892;13.756;2022-07-23T07:25:30;97829.38;;;23.87;65.59
26699;BME280;14313;50.892;13.756;2022-07-23T07:27:55;97827.25;;;24.12;64.86
26699;BME280;14313;50.892;13.756;2022-07-23T07:30:21;97828.34;;;23.99;64.19
26699;BME280;14313;50.892;13.756;2022-07-23T07:32:46;97826.31;;;24.06;64.77
26699;BME280;14313;50.892;13.756;2022-07-23T07:35:12;97822.69;;;24.12;64.44
26699;BME280;14313;50.892;13.756;2022-07-23T07:37:37;97823.72;;;24.86;62.27
26699;BME280;14313;50.892;13.756;2022-07-23T07:40:02;97828.03;;;24.99;61.90
26699;BME280;14313;50.892;13.756;2022-07-23T07:42:28;97829.53;;;25.07;61.52
26699;BME280;14313;50.892;13.756;2022-07-23T07:44:53;97820.56;;;24.89;61.87
26699;BME280;14313;50.892;13.756;2022-07-23T07:47:19;97841.28;;;25.00;61.07
26699;BME280;14313;50.892;13.756;2022-07-23T07:49:44;97827.31;;;25.20;61.30
26699;BME280;14313;50.892;13.756;2022-07-23T07:52:10;97839.91;;;24.98;61.04
26699;BME280;14313;50.892;13.756;2022-07-23T07:54:35;97824.91;;;24.79;61.72
26699;BME280;14313;50.892;13.756;2022-07-23T07:57:01;97833.44;;;24.47;62.82
26699;BME280;14313;50.892;13.756;2022-07-23T07:59:26;97825.94;;;24.49;62.93
26699;BME280;14313;50.892;13.756;2022-07-23T08:01:51;97836.38;;;24.97;61.80
26699;BME280;14313;50.892;13.756;2022-07-23T08:04:17;97820.00;;;25.04;61.14
26699;BME280;14313;50.892;13.756;2022-07-23T08:06:42;97819.38;;;25.59;60.05
26699;BME280;14313;50.892;13.756;2022-07-23T08:09:08;97815.78;;;25.70;58.34
26699;BME280;14313;50.892;13.756;2022-07-23T08:11:33;97808.06;;;26.17;57.97
26699;BME280;14313;50.892;13.756;2022-07-23T08:13:58;97809.44;;;25.98;57.71
26699;BME280;14313;50.892;13.756;2022-07-23T08:16:24;97797.56;;;26.59;56.93
26699;BME280;14313;50.892;13.756;2022-07-23T08:18:49;97810.97;;;26.92;55.89
26699;BME280;14313;50.892;13.756;2022-07-23T08:21:14;97806.38;;;27.25;54.35
26699;BME280;14313;50.892;13.756;2022-07-23T08:23:39;97810.72;;;26.50;56.13
26699;BME280;14313;50.892;13.756;2022-07-23T08:26:05;97807.00;;;26.35;57.15
26699;BME280;14313;50.892;13.756;2022-07-23T08:28:30;97802.84;;;26.49;56.31
26699;BME280;14313;50.892;13.756;2022-07-23T08:30:58;97797.53;;;26.81;54.84
26699;BME280;14313;50.892;13.756;2022-07-23T08:33:24;97802.72;;;26.60;56.14
26699;BME280;14313;50.892;13.756;2022-07-23T08:35:50;97798.66;;;27.06;54.59
26699;BME280;14313;50.892;13.756;2022-07-23T08:38:19;97804.72;;;26.92;54.59
26699;BME280;14313;50.892;13.756;2022-07-23T08:40:48;97795.38;;;27.04;55.27
26699;BME280;14313;50.892;13.756;2022-07-23T08:43:16;97798.75;;;27.48;53.85
26699;BME280;14313;50.892;13.756;2022-07-23T08:45:46;97802.25;;;27.44;53.69
26699;BME280;14313;50.892;13.756;2022-07-23T08:48:16;97805.31;;;26.99;54.54
26699;BME280;14313;50.892;13.756;2022-07-23T08:50:43;97810.06;;;27.40;54.16
26699;BME280;14313;50.892;13.756;2022-07-23T08:53:09;97798.44;;;27.45;53.89
26699;BME280;14313;50.892;13.756;2022-07-23T08:55:34;97804.91;;;27.71;53.93
26699;BME280;14313;50.892;13.756;2022-07-23T08:58:00;97812.84;;;27.19;54.47
26699;BME280;14313;50.892;13.756;2022-07-23T09:00:26;97810.94;;;27.19;55.06
26699;BME280;14313;50.892;13.756;2022-07-23T09:02:52;97816.78;;;28.49;51.54
26699;BME280;14313;50.892;13.756;2022-07-23T09:05:17;97813.78;;;27.98;52.42
26699;BME280;14313;50.892;13.756;2022-07-23T09:10:54;97815.69;;;29.27;49.61
26699;BME280;14313;50.892;13.756;2022-07-23T09:15:49;97820.59;;;29.45;48.65
26699;BME280;14313;50.892;13.756;2022-07-23T09:18:15;97821.69;;;28.52;50.10
26699;BME280;14313;50.892;13.756;2022-07-23T09:20:40;97822.16;;;28.96;49.90
26699;BME280;14313;50.892;13.756;2022-07-23T09:23:06;97822.50;;;29.35;48.48
26699;BME280;14313;50.892;13.756;2022-07-23T09:25:31;97828.69;;;29.05;49.54
26699;BME280;14313;50.892;13.756;2022-07-23T09:27:58;97820.03;;;29.23;49.30
26699;BME280;14313;50.892;13.756;2022-07-23T09:30:29;97827.66;;;30.17;47.62
26699;BME280;14313;50.892;13.756;2022-07-23T09:33:10;97819.63;;;31.20;45.38
26699;BME280;14313;50.892;13.756;2022-07-23T09:35:54;97825.53;;;31.32;44.92
26699;BME280;14313;50.892;13.756;2022-07-23T09:38:21;97817.84;;;30.31;46.12
26699;BME280;14313;50.892;13.756;2022-07-23T09:40:47;97817.25;;;30.49;46.49
26699;BME280;14313;50.892;13.756;2022-07-23T09:43:30;97819.28;;;30.83;45.57
26699;BME280;14313;50.892;13.756;2022-07-23T09:46:22;97819.78;;;30.90;45.61
26699;BME280;14313;50.892;13.756;2022-07-23T09:48:49;97834.44;;;31.82;44.31
26699;BME280;14313;50.892;13.756;2022-07-23T09:51:16;97848.91;;;31.44;44.46
26699;BME280;14313;50.892;13.756;2022-07-23T09:53:52;97855.22;;;30.85;44.88
26699;BME280;14313;50.892;13.756;2022-07-23T09:56:18;97865.72;;;29.61;47.77
26699;BME280;14313;50.892;13.756;2022-07-23T09:58:45;97853.69;;;29.07;48.97
26699;BME280;14313;50.892;13.756;2022-07-23T10:01:14;97857.44;;;29.01;49.30
26699;BME280;14313;50.892;13.756;2022-07-23T10:03:42;97852.34;;;29.24;49.03
26699;BME280;14313;50.892;13.756;2022-07-23T10:06:30;97856.75;;;29.81;47.10
26699;BME280;14313;50.892;13.756;2022-07-23T10:09:29;97848.81;;;30.45;46.46
26699;BME280;14313;50.892;13.756;2022-07-23T10:12:13;97851.84;;;30.29;46.36
26699;BME280;14313;50.892;13.756;2022-07-23T10:14:56;97843.38;;;31.59;44.72
26699;BME280;14313;50.892;13.756;2022-07-23T10:17:22;97848.31;;;31.47;43.99
26699;BME280;14313;50.892;13.756;2022-07-23T10:19:48;97857.09;;;32.40;42.11
26699;BME280;14313;50.892;13.756;2022-07-23T10:22:18;97848.78;;;32.50;42.42
26699;BME280;14313;50.892;13.756;2022-07-23T10:25:05;97850.78;;;32.69;41.30
26699;BME280;14313;50.892;13.756;2022-07-23T10:28:01;97862.38;;;32.79;41.67
26699;BME280;14313;50.892;13.756;2022-07-23T10:30:54;97862.88;;;32.05;42.46
26699;BME280;14313;50.892;13.756;2022-07-23T10:36:28;97870.31;;;30.52;45.47
26699;BME280;14313;50.892;13.756;2022-07-23T10:39:08;97862.47;;;31.59;44.17
26699;BME280;14313;50.892;13.756;2022-07-23T10:41:41;97868.38;;;30.53;45.12
26699;BME280;14313;50.892;13.756;2022-07-23T10:44:17;97866.38;;;30.83;45.45
26699;BME280;14313;50.892;13.756;2022-07-23T10:46:57;97853.28;;;31.40;44.29
26699;BME280;14313;50.892;13.756;2022-07-23T10:49:42;97857.72;;;32.32;42.19
26699;BME280;14313;50.892;13.756;2022-07-23T10:54:42;97875.72;;;33.28;40.27
26699;BME280;14313;50.892;13.756;2022-07-23T10:57:08;97880.63;;;32.36;41.76
26699;BME280;14313;50.892;13.756;2022-07-23T11:02:34;97874.72;;;33.19;39.82
26699;BME280;14313;50.892;13.756;2022-07-23T11:05:10;97875.28;;;33.91;39.12
26699;BME280;14313;50.892;13.756;2022-07-23T11:10:37;97858.50;;;34.57;38.41
26699;BME280;14313;50.892;13.756;2022-07-23T11:16:04;97873.03;;;35.84;36.59
26699;BME280;14313;50.892;13.756;2022-07-23T11:31:57;97857.41;;;35.94;35.62
26699;BME280;14313;50.892;13.756;2022-07-23T11:34:43;97857.13;;;35.73;35.87
26699;BME280;14313;50.892;13.756;2022-07-23T11:37:26;97864.34;;;35.69;35.54
26699;BME280;14313;50.892;13.756;2022-07-23T11:39:56;97864.63;;;34.82;37.31
26699;BME280;14313;50.892;13.756;2022-07-23T11:42:22;97866.13;;;34.60;37.58
26699;BME280;14313;50.892;13.756;2022-07-23T11:44:49;97866.97;;;33.82;38.23
26699;BME280;14313;50.892;13.756;2022-07-23T11:47:22;97863.59;;;33.53;39.15
26699;BME280;14313;50.892;13.756;2022-07-23T11:49:58;97854.56;;;32.73;40.85
26699;BME280;14313;50.892;13.756;2022-07-23T11:52:26;97840.59;;;32.50;41.17
26699;BME280;14313;50.892;13.756;2022-07-23T11:54:58;97850.13;;;32.29;41.59
26699;BME280;14313;50.892;13.756;2022-07-23T11:57:29;97840.84;;;31.28;43.02
26699;BME280;14313;50.892;13.756;2022-07-23T12:00:02;97855.41;;;31.87;42.32
26699;BME280;14313;50.892;13.756;2022-07-23T12:02:41;97858.72;;;30.90;43.74
26699;BME280;14313;50.892;13.756;2022-07-23T12:05:08;97850.44;;;31.16;43.32
26699;BME280;14313;50.892;13.756;2022-07-23T12:07:38;97847.53;;;30.97;43.54
26699;BME280;14313;50.892;13.756;2022-07-23T12:10:10;97848.09;;;31.43;43.37
26699;BME280;14313;50.892;13.756;2022-07-23T12:12:37;97853.34;;;30.75;44.64
26699;BME280;14313;50.892;13.756;2022-07-23T12:15:04;97858.78;;;30.80;44.59
26699;BME280;14313;50.892;13.756;2022-07-23T12:17:32;97857.28;;;30.24;45.57
26699;BME280;14313;50.892;13.756;2022-07-23T12:19:59;97864.88;;;30.57;45.60
26699;BME280;14313;50.892;13.756;2022-07-23T12:22:26;97853.38;;;30.70;45.47
26699;BME280;14313;50.892;13.756;2022-07-23T12:25:04;97854.78;;;30.42;46.14
26699;BME280;14313;50.892;13.756;2022-07-23T12:27:30;97879.31;;;30.22;47.39
26699;BME280;14313;50.892;13.756;2022-07-23T12:29:56;97879.50;;;29.24;49.28
26699;BME280;14313;50.892;13.756;2022-07-23T12:32:28;97870.00;;;29.22;49.77
26699;BME280;14313;50.892;13.756;2022-07-23T12:35:08;97878.16;;;28.60;50.80
26699;BME280;14313;50.892;13.756;2022-07-23T12:37:38;97866.13;;;28.93;50.50
26699;BME280;14313;50.892;13.756;2022-07-23T12:40:30;97873.56;;;29.28;49.64
26699;BME280;14313;50.892;13.756;2022-07-23T12:43:02;97886.88;;;29.24;50.13
26699;BME280;14313;50.892;13.756;2022-07-23T12:45:41;97889.81;;;29.12;50.17
26699;BME280;14313;50.892;13.756;2022-07-23T12:48:08;97886.09;;;29.39;49.96
26699;BME280;14313;50.892;13.756;2022-07-23T12:53:29;97904.94;;;30.16;nan
26699;BME280;14313;50.892;13.756;2022-07-23T12:58:45;97906.00;;;30.20;48.74
26699;BME280;14313;50.892;13.756;2022-07-23T13:04:11;97906.25;;;29.88;48.97
26699;BME280;14313;50.892;13.756;2022-07-23T13:06:49;97912.09;;;29.19;50.49
26699;BME280;14313;50.892;13.756;2022-07-23T13:09:17;97913.56;;;28.80;51.96
26699;BME280;14313;50.892;13.756;2022-07-23T13:11:44;97914.16;;;28.40;53.28
26699;BME280;14313;50.892;13.756;2022-07-23T13:14:11;97912.75;;;28.79;52.09
26699;BME280;14313;50.892;13.756;2022-07-23T13:16:36;97918.91;;;28.70;52.53
26699;BME280;14313;50.892;13.756;2022-07-23T13:19:02;97933.97;;;28.83;52.23
26699;BME280;14313;50.892;13.756;2022-07-23T13:21:28;97927.41;;;28.78;52.23
26699;BME280;14313;50.892;13.756;2022-07-23T13:23:54;97919.97;;;29.21;51.43
26699;BME280;14313;50.892;13.756;2022-07-23T13:26:20;97917.69;;;29.85;50.26
26699;BME280;14313;50.892;13.756;2022-07-23T13:28:45;97919.06;;;30.18;49.99
26699;BME280;14313;50.892;13.756;2022-07-23T13:31:11;97915.56;;;31.17;48.04
26699;BME280;14313;50.892;13.756;2022-07-23T13:33:36;97908.56;;;31.45;46.17
26699;BME280;14313;50.892;13.756;2022-07-23T13:36:03;97914.50;;;31.13;46.67